sensor_id;sensor_type;location;lat;lon;timestamp;P1;durP1;ratioP1;P2;durP2;ratioP2
49488;SDS011;35382;51.484;11.476;2022-09-17T00:01:16;104.53;;;100.30;;
49488;SDS011;35382;51.484;11.476;2022-09-17T00:02:59;105.47;;;101.22;;
49488;SDS011;35382;51.484;11.476;2022-09-17T00:04:41;102.15;;;98.00;;
49488;SDS011;35382;51.484;11.476;2022-09-17T00:06:23;109.75;;;105.45;;
49488;SDS011;35382;51.484;11.476;2022-09-17T00:08:05;118.20;;;113.65;;
49488;SDS011;35382;51.484;11.476;2022-09-17T00:09:47;118.65;;;113.90;;
49488;SDS011;35382;51.484;11.476;2022-09-17T00:11:29;112.57;;;108.35;;
49488;SDS011;35382;51.484;11.476;2022-09-17T00:13:11;125.70;;;120.78;;
49488;SDS011;35382;51.484;11.476;2022-09-17T00:14:52;123.88;;;118.97;;
49488;SDS011;35382;51.484;11.476;2022-09-17T00:16:34;121.47;;;116.75;;
49488;SDS011;35382;51.484;11.476;2022-09-17T00:18:17;120.80;;;116.18;;
49488;SDS011;35382;51.484;11.476;2022-09-17T00:19:58;121.35;;;116.85;;
49488;SDS011;35382;51.484;11.476;2022-09-17T00:21:39;133.60;;;128.30;;
49488;SDS011;35382;51.484;11.476;2022-09-17T00:23:20;119.63;;;115.05;;
49488;SDS011;35382;51.484;11.476;2022-09-17T00:25:01;123.70;;;118.95;;
49488;SDS011;35382;51.484;11.476;2022-09-17T00:26:43;129.48;;;124.53;;
49488;SDS011;35382;51.484;11.476;2022-09-17T00:28:24;126.15;;;121.18;;
49488;SDS011;35382;51.484;11.476;2022-09-17T00:30:06;132.23;;;127.07;;
49488;SDS011;35382;51.484;11.476;2022-09-17T00:31:47;130.43;;;125.30;;
49488;SDS011;35382;51.484;11.476;2022-09-17T00:33:28;129.82;;;124.82;;
49488;SDS011;35382;51.484;11.476;2022-09-17T00:35:09;129.90;;;124.90;;
49488;SDS011;35382;51.484;11.476;2022-09-17T00:36:50;131.82;;;126.63;;
49488;SDS011;35382;51.484;11.476;2022-09-17T00:38:31;131.35;;;126.25;;
49488;SDS011;35382;51.484;11.476;2022-09-17T00:40:13;144.57;;;138.88;;
49488;SDS011;35382;51.484;11.476;2022-09-17T00:41:54;130.13;;;125.10;;
49488;SDS011;35382;51.484;11.476;2022-09-17T00:43:36;151.43;;;145.57;;
49488;SDS011;35382;51.484;11.476;2022-09-17T00:45:22;135.63;;;130.45;;
49488;SDS011;35382;51.484;11.476;2022-09-17T00:47:03;140.57;;;135.32;;
49488;SDS011;35382;51.484;11.476;2022-09-17T00:48:45;150.50;;;144.85;;
49488;SDS011;35382;51.484;11.476;2022-09-17T00:50:27;143.05;;;137.43;;
49488;SDS011;35382;51.484;11.476;2022-09-17T00:52:12;140.05;;;134.60;;
49488;SDS011;35382;51.484;11.476;2022-09-17T00:53:55;151.63;;;146.00;;
49488;SDS011;35382;51.484;11.476;2022-09-17T00:55:37;173.75;;;167.07;;
49488;SDS011;35382;51.484;11.476;2022-09-17T00:57:21;186.73;;;179.70;;
49488;SDS011;35382;51.484;11.476;2022-09-17T00:59:02;164.20;;;157.98;;
49488;SDS011;35382;51.484;11.476;2022-09-17T01:00:44;210.48;;;202.38;;
49488;SDS011;35382;51.484;11.476;2022-09-17T01:02:26;196.80;;;189.30;;
49488;SDS011;35382;51.484;11.476;2022-09-17T01:04:17;203.90;;;196.32;;
49488;SDS011;35382;51.484;11.476;2022-09-17T01:06:07;186.20;;;179.20;;
49488;SDS011;35382;51.484;11.476;2022-09-17T01:10:26;206.15;;;198.35;;
49488;SDS011;35382;51.484;11.476;2022-09-17T01:15:54;171.30;;;164.98;;
49488;SDS011;35382;51.484;11.476;2022-09-17T01:26:04;273.92;;;263.50;;
49488;SDS011;35382;51.484;11.476;2022-09-17T01:31:52;272.90;;;262.52;;
49488;SDS011;35382;51.484;11.476;2022-09-17T01:33:57;271.65;;;261.42;;
49488;SDS011;35382;51.484;11.476;2022-09-17T01:40:23;250.13;;;240.77;;
49488;SDS011;35382;51.484;11.476;2022-09-17T01:44:11;220.73;;;212.60;;
49488;SDS011;35382;51.484;11.476;2022-09-17T01:45:58;249.52;;;240.02;;
49488;SDS011;35382;51.484;11.476;2022-09-17T01:47:50;246.20;;;237.10;;
49488;SDS011;35382;51.484;11.476;2022-09-17T01:49:35;246.82;;;237.73;;
49488;SDS011;35382;51.484;11.476;2022-09-17T01:51:21;286.17;;;275.27;;
49488;SDS011;35382;51.484;11.476;2022-09-17T01:53:05;285.02;;;274.40;;
49488;SDS011;35382;51.484;11.476;2022-09-17T01:54:49;268.77;;;258.80;;
49488;SDS011;35382;51.484;11.476;2022-09-17T01:58:48;266.05;;;256.25;;
49488;SDS011;35382;51.484;11.476;2022-09-17T02:00:33;296.50;;;285.27;;
49488;SDS011;35382;51.484;11.476;2022-09-17T02:02:26;315.85;;;303.75;;
49488;SDS011;35382;51.484;11.476;2022-09-17T02:04:16;265.65;;;255.75;;
49488;SDS011;35382;51.484;11.476;2022-09-17T02:06:12;276.15;;;265.83;;
49488;SDS011;35382;51.484;11.476;2022-09-17T02:08:02;249.98;;;240.73;;
49488;SDS011;35382;51.484;11.476;2022-09-17T02:09:58;238.60;;;229.50;;
49488;SDS011;35382;51.484;11.476;2022-09-17T02:11:44;242.20;;;233.23;;
49488;SDS011;35382;51.484;11.476;2022-09-17T02:13:31;271.73;;;261.38;;
49488;SDS011;35382;51.484;11.476;2022-09-17T02:17:05;315.33;;;303.00;;
49488;SDS011;35382;51.484;11.476;2022-09-17T02:20:42;279.20;;;268.80;;
49488;SDS011;35382;51.484;11.476;2022-09-17T02:24:32;290.17;;;279.15;;
49488;SDS011;35382;51.484;11.476;2022-09-17T02:26:18;283.05;;;272.48;;
49488;SDS011;35382;51.484;11.476;2022-09-17T02:28:01;325.05;;;312.73;;
49488;SDS011;35382;51.484;11.476;2022-09-17T02:29:48;319.98;;;307.50;;
49488;SDS011;35382;51.484;11.476;2022-09-17T02:31:30;354.30;;;340.35;;
49488;SDS011;35382;51.484;11.476;2022-09-17T02:33:11;309.60;;;297.95;;
49488;SDS011;35382;51.484;11.476;2022-09-17T02:34:54;317.73;;;305.50;;
49488;SDS011;35382;51.484;11.476;2022-09-17T02:36:35;322.80;;;310.30;;
49488;SDS011;35382;51.484;11.476;2022-09-17T02:38:25;310.70;;;298.90;;
49488;SDS011;35382;51.484;11.476;2022-09-17T02:40:09;309.70;;;297.98;;
49488;SDS011;35382;51.484;11.476;2022-09-17T02:50:53;292.67;;;281.67;;
49488;SDS011;35382;51.484;11.476;2022-09-17T02:55:00;300.27;;;288.88;;
49488;SDS011;35382;51.484;11.476;2022-09-17T03:00:28;306.95;;;295.30;;
49488;SDS011;35382;51.484;11.476;2022-09-17T03:02:17;297.88;;;286.65;;
49488;SDS011;35382;51.484;11.476;2022-09-17T03:04:03;321.75;;;309.42;;
49488;SDS011;35382;51.484;11.476;2022-09-17T03:05:48;311.42;;;299.48;;
49488;SDS011;35382;51.484;11.476;2022-09-17T03:07:29;317.67;;;305.42;;
49488;SDS011;35382;51.484;11.476;2022-09-17T03:09:14;313.98;;;301.88;;
49488;SDS011;35382;51.484;11.476;2022-09-17T03:10:55;306.60;;;294.92;;
49488;SDS011;35382;51.484;11.476;2022-09-17T03:12:36;321.27;;;308.92;;
49488;SDS011;35382;51.484;11.476;2022-09-17T03:14:18;317.42;;;305.30;;
49488;SDS011;35382;51.484;11.476;2022-09-17T03:16:03;304.48;;;292.65;;
49488;SDS011;35382;51.484;11.476;2022-09-17T03:17:44;310.45;;;298.52;;
49488;SDS011;35382;51.484;11.476;2022-09-17T03:19:25;311.33;;;299.40;;
49488;SDS011;35382;51.484;11.476;2022-09-17T03:21:07;298.80;;;287.35;;
49488;SDS011;35382;51.484;11.476;2022-09-17T03:22:49;312.10;;;300.17;;
49488;SDS011;35382;51.484;11.476;2022-09-17T03:24:31;296.98;;;285.60;;
49488;SDS011;35382;51.484;11.476;2022-09-17T03:26:12;294.38;;;283.17;;
49488;SDS011;35382;51.484;11.476;2022-09-17T03:27:52;297.13;;;285.90;;
49488;SDS011;35382;51.484;11.476;2022-09-17T03:29:33;301.58;;;290.05;;
49488;SDS011;35382;51.484;11.476;2022-09-17T03:31:14;317.13;;;305.02;;
49488;SDS011;35382;51.484;11.476;2022-09-17T03:32:55;300.88;;;289.30;;
49488;SDS011;35382;51.484;11.476;2022-09-17T03:34:36;305.42;;;293.73;;
49488;SDS011;35382;51.484;11.476;2022-09-17T03:36:17;296.35;;;285.00;;
49488;SDS011;35382;51.484;11.476;2022-09-17T03:37:58;303.23;;;291.65;;
49488;SDS011;35382;51.484;11.476;2022-09-17T03:39:39;293.50;;;282.38;;
49488;SDS011;35382;51.484;11.476;2022-09-17T03:41:20;301.52;;;289.77;;
49488;SDS011;35382;51.484;11.476;2022-09-17T03:43:01;298.52;;;287.02;;
49488;SDS011;35382;51.484;11.476;2022-09-17T03:44:42;297.98;;;286.58;;
49488;SDS011;35382;51.484;11.476;2022-09-17T03:46:23;314.45;;;302.23;;
49488;SDS011;35382;51.484;11.476;2022-09-17T03:48:04;273.98;;;263.67;;
49488;SDS011;35382;51.484;11.476;2022-09-17T03:49:45;307.88;;;296.15;;
49488;SDS011;35382;51.484;11.476;2022-09-17T03:51:26;301.23;;;289.73;;
49488;SDS011;35382;51.484;11.476;2022-09-17T03:53:07;289.25;;;278.30;;
49488;SDS011;35382;51.484;11.476;2022-09-17T03:54:48;294.38;;;283.27;;
49488;SDS011;35382;51.484;11.476;2022-09-17T03:56:29;293.23;;;282.05;;
49488;SDS011;35382;51.484;11.476;2022-09-17T03:58:10;293.58;;;282.58;;
49488;SDS011;35382;51.484;11.476;2022-09-17T03:59:50;296.67;;;285.40;;
49488;SDS011;35382;51.484;11.476;2022-09-17T04:01:31;291.85;;;280.85;;
49488;SDS011;35382;51.484;11.476;2022-09-17T04:03:12;277.58;;;267.00;;
49488;SDS011;35382;51.484;11.476;2022-09-17T04:04:53;290.92;;;280.02;;
49488;SDS011;35382;51.484;11.476;2022-09-17T04:06:34;292.55;;;281.45;;
49488;SDS011;35382;51.484;11.476;2022-09-17T04:08:15;286.73;;;275.80;;
49488;SDS011;35382;51.484;11.476;2022-09-17T04:09:56;305.52;;;293.80;;
49488;SDS011;35382;51.484;11.476;2022-09-17T04:11:37;284.10;;;273.20;;
49488;SDS011;35382;51.484;11.476;2022-09-17T04:13:18;287.40;;;276.65;;
49488;SDS011;35382;51.484;11.476;2022-09-17T04:14:59;287.10;;;276.33;;
49488;SDS011;35382;51.484;11.476;2022-09-17T04:16:40;286.65;;;275.77;;
49488;SDS011;35382;51.484;11.476;2022-09-17T04:18:21;288.55;;;277.60;;
49488;SDS011;35382;51.484;11.476;2022-09-17T04:20:03;283.77;;;273.13;;
49488;SDS011;35382;51.484;11.476;2022-09-17T04:21:45;279.83;;;269.40;;
49488;SDS011;35382;51.484;11.476;2022-09-17T04:23:25;286.42;;;275.58;;
49488;SDS011;35382;51.484;11.476;2022-09-17T04:25:06;298.13;;;286.95;;
49488;SDS011;35382;51.484;11.476;2022-09-17T04:26:48;280.52;;;269.88;;
49488;SDS011;35382;51.484;11.476;2022-09-17T04:28:29;291.33;;;280.27;;
49488;SDS011;35382;51.484;11.476;2022-09-17T04:30:10;297.63;;;286.42;;
49488;SDS011;35382;51.484;11.476;2022-09-17T04:31:51;288.65;;;277.83;;
49488;SDS011;35382;51.484;11.476;2022-09-17T04:33:32;280.38;;;269.83;;
49488;SDS011;35382;51.484;11.476;2022-09-17T04:35:14;286.63;;;275.85;;
49488;SDS011;35382;51.484;11.476;2022-09-17T04:36:55;289.13;;;278.00;;
49488;SDS011;35382;51.484;11.476;2022-09-17T04:38:36;282.25;;;271.48;;
49488;SDS011;35382;51.484;11.476;2022-09-17T04:40:16;286.85;;;275.90;;
49488;SDS011;35382;51.484;11.476;2022-09-17T04:41:57;291.55;;;280.50;;
49488;SDS011;35382;51.484;11.476;2022-09-17T04:43:38;285.38;;;274.55;;
49488;SDS011;35382;51.484;11.476;2022-09-17T04:45:19;293.40;;;282.10;;
49488;SDS011;35382;51.484;11.476;2022-09-17T04:47:01;269.63;;;259.30;;
49488;SDS011;35382;51.484;11.476;2022-09-17T04:48:42;285.90;;;275.13;;
49488;SDS011;35382;51.484;11.476;2022-09-17T04:50:23;288.08;;;277.27;;
49488;SDS011;35382;51.484;11.476;2022-09-17T04:52:04;287.90;;;276.98;;
49488;SDS011;35382;51.484;11.476;2022-09-17T04:53:45;293.48;;;282.40;;
49488;SDS011;35382;51.484;11.476;2022-09-17T04:55:26;286.48;;;275.58;;
49488;SDS011;35382;51.484;11.476;2022-09-17T04:57:07;288.90;;;277.85;;
49488;SDS011;35382;51.484;11.476;2022-09-17T04:58:48;294.90;;;283.70;;
49488;SDS011;35382;51.484;11.476;2022-09-17T05:00:29;291.80;;;280.67;;
49488;SDS011;35382;51.484;11.476;2022-09-17T05:02:10;281.48;;;270.80;;
49488;SDS011;35382;51.484;11.476;2022-09-17T05:03:51;280.80;;;270.23;;
49488;SDS011;35382;51.484;11.476;2022-09-17T05:05:32;283.00;;;272.27;;
49488;SDS011;35382;51.484;11.476;2022-09-17T05:07:13;277.90;;;267.50;;
49488;SDS011;35382;51.484;11.476;2022-09-17T05:08:54;287.00;;;276.08;;
49488;SDS011;35382;51.484;11.476;2022-09-17T05:10:35;287.08;;;276.27;;
49488;SDS011;35382;51.484;11.476;2022-09-17T05:12:16;287.90;;;276.92;;
49488;SDS011;35382;51.484;11.476;2022-09-17T05:13:57;287.20;;;276.40;;
49488;SDS011;35382;51.484;11.476;2022-09-17T05:15:38;284.70;;;273.98;;
49488;SDS011;35382;51.484;11.476;2022-09-17T05:17:18;286.00;;;274.98;;
49488;SDS011;35382;51.484;11.476;2022-09-17T05:18:59;279.25;;;268.83;;
49488;SDS011;35382;51.484;11.476;2022-09-17T05:20:41;292.08;;;281.02;;
49488;SDS011;35382;51.484;11.476;2022-09-17T05:22:22;295.45;;;284.20;;
49488;SDS011;35382;51.484;11.476;2022-09-17T05:24:03;287.40;;;276.55;;
49488;SDS011;35382;51.484;11.476;2022-09-17T05:25:44;289.83;;;278.70;;
49488;SDS011;35382;51.484;11.476;2022-09-17T05:27:25;286.55;;;275.65;;
49488;SDS011;35382;51.484;11.476;2022-09-17T05:29:06;288.13;;;277.10;;
49488;SDS011;35382;51.484;11.476;2022-09-17T05:30:47;298.60;;;287.08;;
49488;SDS011;35382;51.484;11.476;2022-09-17T05:32:28;294.65;;;283.52;;
49488;SDS011;35382;51.484;11.476;2022-09-17T05:34:09;293.88;;;282.58;;
49488;SDS011;35382;51.484;11.476;2022-09-17T05:35:50;287.85;;;276.80;;
49488;SDS011;35382;51.484;11.476;2022-09-17T05:37:31;279.55;;;268.90;;
49488;SDS011;35382;51.484;11.476;2022-09-17T05:39:12;284.90;;;274.05;;
49488;SDS011;35382;51.484;11.476;2022-09-17T05:40:53;305.50;;;293.63;;
49488;SDS011;35382;51.484;11.476;2022-09-17T05:42:34;275.85;;;265.27;;
49488;SDS011;35382;51.484;11.476;2022-09-17T05:44:15;286.75;;;275.63;;
49488;SDS011;35382;51.484;11.476;2022-09-17T05:45:59;267.58;;;257.35;;
49488;SDS011;35382;51.484;11.476;2022-09-17T05:47:44;265.90;;;255.63;;
49488;SDS011;35382;51.484;11.476;2022-09-17T05:49:25;275.08;;;264.60;;
49488;SDS011;35382;51.484;11.476;2022-09-17T05:51:06;293.35;;;282.15;;
49488;SDS011;35382;51.484;11.476;2022-09-17T05:52:47;281.75;;;271.00;;
49488;SDS011;35382;51.484;11.476;2022-09-17T05:54:28;292.35;;;280.80;;
49488;SDS011;35382;51.484;11.476;2022-09-17T05:56:09;281.80;;;270.88;;
49488;SDS011;35382;51.484;11.476;2022-09-17T05:57:50;292.48;;;281.10;;
49488;SDS011;35382;51.484;11.476;2022-09-17T05:59:31;299.88;;;288.30;;
49488;SDS011;35382;51.484;11.476;2022-09-17T06:01:12;278.23;;;267.30;;
49488;SDS011;35382;51.484;11.476;2022-09-17T06:02:55;284.67;;;273.70;;
49488;SDS011;35382;51.484;11.476;2022-09-17T06:04:37;288.05;;;276.75;;
49488;SDS011;35382;51.484;11.476;2022-09-17T06:06:18;285.70;;;274.48;;
49488;SDS011;35382;51.484;11.476;2022-09-17T06:07:59;287.10;;;276.05;;
49488;SDS011;35382;51.484;11.476;2022-09-17T06:09:40;264.30;;;254.23;;
49488;SDS011;35382;51.484;11.476;2022-09-17T06:11:21;274.73;;;264.02;;
49488;SDS011;35382;51.484;11.476;2022-09-17T06:13:02;286.35;;;275.27;;
49488;SDS011;35382;51.484;11.476;2022-09-17T06:14:43;273.77;;;263.05;;
49488;SDS011;35382;51.484;11.476;2022-09-17T06:16:24;281.77;;;270.70;;
49488;SDS011;35382;51.484;11.476;2022-09-17T06:18:05;285.30;;;274.33;;
49488;SDS011;35382;51.484;11.476;2022-09-17T06:19:46;283.42;;;272.45;;
49488;SDS011;35382;51.484;11.476;2022-09-17T06:21:26;271.15;;;260.70;;
49488;SDS011;35382;51.484;11.476;2022-09-17T06:23:07;281.98;;;271.02;;
49488;SDS011;35382;51.484;11.476;2022-09-17T06:24:48;271.98;;;261.38;;
49488;SDS011;35382;51.484;11.476;2022-09-17T06:26:29;275.05;;;264.35;;
49488;SDS011;35382;51.484;11.476;2022-09-17T06:28:10;269.20;;;258.30;;
49488;SDS011;35382;51.484;11.476;2022-09-17T06:29:51;252.40;;;242.77;;
49488;SDS011;35382;51.484;11.476;2022-09-17T06:31:32;247.07;;;237.75;;
49488;SDS011;35382;51.484;11.476;2022-09-17T06:33:13;246.63;;;237.27;;
49488;SDS011;35382;51.484;11.476;2022-09-17T06:34:55;235.00;;;225.82;;
49488;SDS011;35382;51.484;11.476;2022-09-17T06:36:36;225.60;;;216.55;;
49488;SDS011;35382;51.484;11.476;2022-09-17T06:38:17;189.30;;;182.13;;
49488;SDS011;35382;51.484;11.476;2022-09-17T06:39:58;212.43;;;204.10;;
49488;SDS011;35382;51.484;11.476;2022-09-17T06:41:42;212.38;;;203.75;;
49488;SDS011;35382;51.484;11.476;2022-09-17T06:43:24;201.38;;;193.55;;
49488;SDS011;35382;51.484;11.476;2022-09-17T06:45:05;190.73;;;183.13;;
49488;SDS011;35382;51.484;11.476;2022-09-17T06:46:50;193.63;;;186.02;;
49488;SDS011;35382;51.484;11.476;2022-09-17T06:48:32;207.18;;;198.60;;
49488;SDS011;35382;51.484;11.476;2022-09-17T06:50:13;189.18;;;181.52;;
49488;SDS011;35382;51.484;11.476;2022-09-17T06:51:54;188.88;;;181.32;;
49488;SDS011;35382;51.484;11.476;2022-09-17T06:53:36;168.98;;;162.13;;
49488;SDS011;35382;51.484;11.476;2022-09-17T06:55:18;201.60;;;193.55;;
49488;SDS011;35382;51.484;11.476;2022-09-17T06:56:59;200.07;;;192.30;;
49488;SDS011;35382;51.484;11.476;2022-09-17T06:58:40;171.93;;;165.10;;
49488;SDS011;35382;51.484;11.476;2022-09-17T07:00:22;164.10;;;157.63;;
49488;SDS011;35382;51.484;11.476;2022-09-17T07:02:03;142.27;;;136.50;;
49488;SDS011;35382;51.484;11.476;2022-09-17T07:03:44;151.27;;;145.18;;
49488;SDS011;35382;51.484;11.476;2022-09-17T07:05:25;140.65;;;134.57;;
49488;SDS011;35382;51.484;11.476;2022-09-17T07:07:08;161.38;;;154.65;;
49488;SDS011;35382;51.484;11.476;2022-09-17T07:08:50;139.07;;;133.18;;
49488;SDS011;35382;51.484;11.476;2022-09-17T07:10:31;138.77;;;132.95;;
49488;SDS011;35382;51.484;11.476;2022-09-17T07:12:12;122.25;;;117.18;;
49488;SDS011;35382;51.484;11.476;2022-09-17T07:13:53;121.03;;;116.05;;
49488;SDS011;35382;51.484;11.476;2022-09-17T07:15:35;124.03;;;118.68;;
49488;SDS011;35382;51.484;11.476;2022-09-17T07:17:16;112.38;;;107.40;;
49488;SDS011;35382;51.484;11.476;2022-09-17T07:18:57;131.40;;;125.90;;
49488;SDS011;35382;51.484;11.476;2022-09-17T07:20:38;125.47;;;120.00;;
49488;SDS011;35382;51.484;11.476;2022-09-17T07:22:19;146.25;;;139.98;;
49488;SDS011;35382;51.484;11.476;2022-09-17T07:24:00;125.53;;;120.32;;
49488;SDS011;35382;51.484;11.476;2022-09-17T07:25:41;105.47;;;101.15;;
49488;SDS011;35382;51.484;11.476;2022-09-17T07:27:22;125.88;;;120.32;;
49488;SDS011;35382;51.484;11.476;2022-09-17T07:29:03;101.57;;;97.20;;
49488;SDS011;35382;51.484;11.476;2022-09-17T07:30:44;103.65;;;99.25;;
49488;SDS011;35382;51.484;11.476;2022-09-17T07:32:25;117.35;;;112.60;;
49488;SDS011;35382;51.484;11.476;2022-09-17T07:34:09;120.05;;;114.45;;
49488;SDS011;35382;51.484;11.476;2022-09-17T07:35:51;147.63;;;141.52;;
49488;SDS011;35382;51.484;11.476;2022-09-17T07:37:33;114.40;;;109.53;;
49488;SDS011;35382;51.484;11.476;2022-09-17T07:39:14;138.65;;;133.07;;
49488;SDS011;35382;51.484;11.476;2022-09-17T07:40:56;125.78;;;120.53;;
49488;SDS011;35382;51.484;11.476;2022-09-17T07:42:37;123.65;;;118.63;;
49488;SDS011;35382;51.484;11.476;2022-09-17T07:44:18;99.53;;;95.28;;
49488;SDS011;35382;51.484;11.476;2022-09-17T07:46:00;109.50;;;104.70;;
49488;SDS011;35382;51.484;11.476;2022-09-17T07:47:42;95.93;;;91.72;;
49488;SDS011;35382;51.484;11.476;2022-09-17T07:49:23;109.40;;;104.78;;
49488;SDS011;35382;51.484;11.476;2022-09-17T07:51:05;124.53;;;119.03;;
49488;SDS011;35382;51.484;11.476;2022-09-17T07:52:46;123.30;;;118.22;;
49488;SDS011;35382;51.484;11.476;2022-09-17T07:54:27;108.10;;;103.20;;
49488;SDS011;35382;51.484;11.476;2022-09-17T07:56:08;121.85;;;116.45;;
49488;SDS011;35382;51.484;11.476;2022-09-17T07:57:50;85.18;;;81.18;;
49488;SDS011;35382;51.484;11.476;2022-09-17T07:59:31;74.68;;;71.03;;
49488;SDS011;35382;51.484;11.476;2022-09-17T08:01:12;102.72;;;98.38;;
49488;SDS011;35382;51.484;11.476;2022-09-17T08:02:56;89.60;;;85.72;;
49488;SDS011;35382;51.484;11.476;2022-09-17T08:04:37;61.80;;;59.00;;
49488;SDS011;35382;51.484;11.476;2022-09-17T08:06:19;92.28;;;88.15;;
49488;SDS011;35382;51.484;11.476;2022-09-17T08:08:01;86.55;;;82.70;;
49488;SDS011;35382;51.484;11.476;2022-09-17T08:09:43;78.22;;;74.60;;
49488;SDS011;35382;51.484;11.476;2022-09-17T08:11:25;86.40;;;82.68;;
49488;SDS011;35382;51.484;11.476;2022-09-17T08:13:07;88.32;;;84.50;;
49488;SDS011;35382;51.484;11.476;2022-09-17T08:14:48;93.38;;;89.43;;
49488;SDS011;35382;51.484;11.476;2022-09-17T08:16:29;93.97;;;89.47;;
49488;SDS011;35382;51.484;11.476;2022-09-17T08:18:11;94.30;;;90.35;;
49488;SDS011;35382;51.484;11.476;2022-09-17T08:19:52;89.78;;;85.97;;
49488;SDS011;35382;51.484;11.476;2022-09-17T08:21:34;95.22;;;91.15;;
49488;SDS011;35382;51.484;11.476;2022-09-17T08:23:15;87.68;;;83.93;;
49488;SDS011;35382;51.484;11.476;2022-09-17T08:24:56;87.70;;;83.75;;
49488;SDS011;35382;51.484;11.476;2022-09-17T08:26:37;84.65;;;80.82;;
49488;SDS011;35382;51.484;11.476;2022-09-17T08:28:19;97.28;;;93.28;;
49488;SDS011;35382;51.484;11.476;2022-09-17T08:30:00;123.93;;;118.85;;
49488;SDS011;35382;51.484;11.476;2022-09-17T08:31:42;136.27;;;130.35;;
49488;SDS011;35382;51.484;11.476;2022-09-17T08:33:23;134.82;;;129.27;;
49488;SDS011;35382;51.484;11.476;2022-09-17T08:35:04;136.80;;;131.13;;
49488;SDS011;35382;51.484;11.476;2022-09-17T08:36:45;153.13;;;147.25;;
49488;SDS011;35382;51.484;11.476;2022-09-17T08:38:30;151.93;;;145.75;;
49488;SDS011;35382;51.484;11.476;2022-09-17T08:40:17;170.98;;;164.15;;
49488;SDS011;35382;51.484;11.476;2022-09-17T08:42:16;182.95;;;175.73;;
49488;SDS011;35382;51.484;11.476;2022-09-17T08:44:23;151.68;;;145.27;;
49488;SDS011;35382;51.484;11.476;2022-09-17T08:46:12;156.77;;;150.27;;
49488;SDS011;35382;51.484;11.476;2022-09-17T08:47:54;132.65;;;126.97;;
49488;SDS011;35382;51.484;11.476;2022-09-17T08:49:52;160.57;;;153.77;;
49488;SDS011;35382;51.484;11.476;2022-09-17T08:53:34;116.28;;;111.53;;
49488;SDS011;35382;51.484;11.476;2022-09-17T08:55:27;139.73;;;133.85;;
49488;SDS011;35382;51.484;11.476;2022-09-17T08:57:22;94.53;;;90.63;;
49488;SDS011;35382;51.484;11.476;2022-09-17T09:01:48;78.90;;;75.40;;
49488;SDS011;35382;51.484;11.476;2022-09-17T09:05:43;80.00;;;76.50;;
49488;SDS011;35382;51.484;11.476;2022-09-17T09:07:28;85.60;;;81.78;;
49488;SDS011;35382;51.484;11.476;2022-09-17T09:09:15;75.07;;;71.63;;
49488;SDS011;35382;51.484;11.476;2022-09-17T09:10:59;75.78;;;72.07;;
49488;SDS011;35382;51.484;11.476;2022-09-17T09:12:42;78.55;;;75.03;;
49488;SDS011;35382;51.484;11.476;2022-09-17T09:14:29;127.93;;;122.32;;
49488;SDS011;35382;51.484;11.476;2022-09-17T09:16:22;126.03;;;120.88;;
49488;SDS011;35382;51.484;11.476;2022-09-17T09:18:19;146.43;;;140.32;;
49488;SDS011;35382;51.484;11.476;2022-09-17T09:20:10;113.57;;;109.07;;
49488;SDS011;35382;51.484;11.476;2022-09-17T09:22:00;97.10;;;92.72;;
49488;SDS011;35382;51.484;11.476;2022-09-17T09:23:51;133.05;;;127.43;;
49488;SDS011;35382;51.484;11.476;2022-09-17T09:25:40;117.97;;;112.90;;
49488;SDS011;35382;51.484;11.476;2022-09-17T09:27:35;98.25;;;94.15;;
49488;SDS011;35382;51.484;11.476;2022-09-17T09:31:33;63.90;;;60.83;;
49488;SDS011;35382;51.484;11.476;2022-09-17T09:33:42;68.35;;;64.97;;
49488;SDS011;35382;51.484;11.476;2022-09-17T09:37:21;46.45;;;43.45;;
49488;SDS011;35382;51.484;11.476;2022-09-17T09:39:13;55.13;;;52.63;;
49488;SDS011;35382;51.484;11.476;2022-09-17T09:41:12;71.60;;;68.40;;
49488;SDS011;35382;51.484;11.476;2022-09-17T09:42:55;46.03;;;43.73;;
49488;SDS011;35382;51.484;11.476;2022-09-17T09:44:40;51.60;;;49.03;;
49488;SDS011;35382;51.484;11.476;2022-09-17T09:52:37;48.90;;;45.92;;
49488;SDS011;35382;51.484;11.476;2022-09-17T09:54:34;45.55;;;42.75;;
49488;SDS011;35382;51.484;11.476;2022-09-17T09:58:38;49.33;;;46.65;;
49488;SDS011;35382;51.484;11.476;2022-09-17T10:02:06;56.28;;;53.47;;
49488;SDS011;35382;51.484;11.476;2022-09-17T10:03:49;35.53;;;33.47;;
49488;SDS011;35382;51.484;11.476;2022-09-17T10:05:32;35.38;;;33.38;;
49488;SDS011;35382;51.484;11.476;2022-09-17T10:07:13;41.00;;;38.90;;
49488;SDS011;35382;51.484;11.476;2022-09-17T10:10:35;75.95;;;72.20;;
49488;SDS011;35382;51.484;11.476;2022-09-17T10:12:32;56.13;;;52.83;;
49488;SDS011;35382;51.484;11.476;2022-09-17T10:14:14;59.58;;;56.25;;
49488;SDS011;35382;51.484;11.476;2022-09-17T10:21:51;50.88;;;48.25;;
49488;SDS011;35382;51.484;11.476;2022-09-17T10:23:34;47.03;;;44.58;;
49488;SDS011;35382;51.484;11.476;2022-09-17T10:25:31;37.85;;;35.65;;
49488;SDS011;35382;51.484;11.476;2022-09-17T10:27:14;72.35;;;68.68;;
49488;SDS011;35382;51.484;11.476;2022-09-17T10:28:59;28.85;;;27.05;;
49488;SDS011;35382;51.484;11.476;2022-09-17T10:30:54;80.93;;;76.68;;
49488;SDS011;35382;51.484;11.476;2022-09-17T10:32:39;36.78;;;34.63;;
49488;SDS011;35382;51.484;11.476;2022-09-17T10:34:21;40.50;;;38.05;;
49488;SDS011;35382;51.484;11.476;2022-09-17T10:36:12;62.17;;;58.90;;
49488;SDS011;35382;51.484;11.476;2022-09-17T10:37:54;24.00;;;22.38;;
49488;SDS011;35382;51.484;11.476;2022-09-17T10:39:35;27.75;;;26.05;;
49488;SDS011;35382;51.484;11.476;2022-09-17T10:41:23;29.63;;;27.77;;
49488;SDS011;35382;51.484;11.476;2022-09-17T10:43:19;29.05;;;27.25;;
49488;SDS011;35382;51.484;11.476;2022-09-17T10:45:02;25.20;;;23.63;;
49488;SDS011;35382;51.484;11.476;2022-09-17T10:46:43;22.98;;;21.48;;
49488;SDS011;35382;51.484;11.476;2022-09-17T10:48:25;32.10;;;30.23;;
49488;SDS011;35382;51.484;11.476;2022-09-17T10:50:16;21.45;;;19.95;;
49488;SDS011;35382;51.484;11.476;2022-09-17T10:56:16;22.90;;;21.15;;
49488;SDS011;35382;51.484;11.476;2022-09-17T11:07:54;15.65;;;14.45;;
49488;SDS011;35382;51.484;11.476;2022-09-17T11:09:51;31.42;;;29.45;;
49488;SDS011;35382;51.484;11.476;2022-09-17T11:11:56;21.48;;;19.80;;
49488;SDS011;35382;51.484;11.476;2022-09-17T11:16:35;29.38;;;27.60;;